sensor_id;sensor_type;location;lat;lon;timestamp;temperature;humidity
27671;DHT22;15077;49.704;9.908;2022-10-16T00:01:58;19.60;72.80
27671;DHT22;15077;49.704;9.908;2022-10-16T00:04:24;19.60;72.90
27671;DHT22;15077;49.704;9.908;2022-10-16T00:06:49;19.60;72.90
27671;DHT22;15077;49.704;9.908;2022-10-16T00:09:15;19.60;72.80
27671;DHT22;15077;49.704;9.908;2022-10-16T00:11:41;19.60;72.80
27671;DHT22;15077;49.704;9.908;2022-10-16T00:14:08;19.60;72.70
27671;DHT22;15077;49.704;9.908;2022-10-16T00:16:36;19.60;72.80
27671;DHT22;15077;49.704;9.908;2022-10-16T00:19:02;19.60;72.70
27671;DHT22;15077;49.704;9.908;2022-10-16T00:21:29;19.70;72.80
27671;DHT22;15077;49.704;9.908;2022-10-16T00:24:00;19.60;72.70
27671;DHT22;15077;49.704;9.908;2022-10-16T00:26:30;19.60;72.70
27671;DHT22;15077;49.704;9.908;2022-10-16T00:28:57;19.60;72.70
27671;DHT22;15077;49.704;9.908;2022-10-16T00:31:23;19.60;72.60
27671;DHT22;15077;49.704;9.908;2022-10-16T00:33:49;19.60;72.60
27671;DHT22;15077;49.704;9.908;2022-10-16T00:36:17;19.60;72.70
27671;DHT22;15077;49.704;9.908;2022-10-16T00:38:44;19.70;72.60
27671;DHT22;15077;49.704;9.908;2022-10-16T00:41:12;19.60;72.60
27671;DHT22;15077;49.704;9.908;2022-10-16T00:43:53;19.70;72.60
27671;DHT22;15077;49.704;9.908;2022-10-16T00:51:37;19.60;72.50
27671;DHT22;15077;49.704;9.908;2022-10-16T00:54:08;19.70;72.50
27671;DHT22;15077;49.704;9.908;2022-10-16T00:56:38;19.60;72.40
27671;DHT22;15077;49.704;9.908;2022-10-16T00:59:06;19.60;72.40
27671;DHT22;15077;49.704;9.908;2022-10-16T01:01:40;19.60;72.30
27671;DHT22;15077;49.704;9.908;2022-10-16T01:04:06;19.60;72.30
27671;DHT22;15077;49.704;9.908;2022-10-16T01:12:26;19.60;72.30
27671;DHT22;15077;49.704;9.908;2022-10-16T01:15:15;19.60;72.40
27671;DHT22;15077;49.704;9.908;2022-10-16T01:20:37;19.60;72.40
27671;DHT22;15077;49.704;9.908;2022-10-16T01:26:08;19.50;72.40
27671;DHT22;15077;49.704;9.908;2022-10-16T01:28:41;19.50;72.40
27671;DHT22;15077;49.704;9.908;2022-10-16T01:31:18;19.50;72.40
27671;DHT22;15077;49.704;9.908;2022-10-16T01:33:49;19.60;72.40
27671;DHT22;15077;49.704;9.908;2022-10-16T01:36:21;19.60;72.30
27671;DHT22;15077;49.704;9.908;2022-10-16T01:38:50;19.60;72.30
27671;DHT22;15077;49.704;9.908;2022-10-16T01:41:26;19.60;72.30
27671;DHT22;15077;49.704;9.908;2022-10-16T01:46:29;19.60;72.20
27671;DHT22;15077;49.704;9.908;2022-10-16T01:48:56;19.60;72.10
27671;DHT22;15077;49.704;9.908;2022-10-16T01:51:23;19.70;72.20
27671;DHT22;15077;49.704;9.908;2022-10-16T01:53:52;19.70;72.20
27671;DHT22;15077;49.704;9.908;2022-10-16T01:56:20;19.70;72.10
27671;DHT22;15077;49.704;9.908;2022-10-16T01:58:53;19.70;72.10
27671;DHT22;15077;49.704;9.908;2022-10-16T02:01:23;19.70;72.00
27671;DHT22;15077;49.704;9.908;2022-10-16T02:03:51;19.70;72.00
27671;DHT22;15077;49.704;9.908;2022-10-16T02:06:20;19.80;72.10
27671;DHT22;15077;49.704;9.908;2022-10-16T02:08:47;19.80;72.00
27671;DHT22;15077;49.704;9.908;2022-10-16T02:11:12;19.80;72.00
27671;DHT22;15077;49.704;9.908;2022-10-16T02:13:39;19.80;72.00
27671;DHT22;15077;49.704;9.908;2022-10-16T02:16:10;19.80;71.90
27671;DHT22;15077;49.704;9.908;2022-10-16T02:18:37;19.80;71.90
27671;DHT22;15077;49.704;9.908;2022-10-16T02:21:10;19.80;71.90
27671;DHT22;15077;49.704;9.908;2022-10-16T02:23:48;19.80;71.90
27671;DHT22;15077;49.704;9.908;2022-10-16T02:26:27;19.80;71.90
27671;DHT22;15077;49.704;9.908;2022-10-16T02:28:59;19.80;71.80
27671;DHT22;15077;49.704;9.908;2022-10-16T02:31:31;19.80;71.80
27671;DHT22;15077;49.704;9.908;2022-10-16T02:34:00;19.80;71.70
27671;DHT22;15077;49.704;9.908;2022-10-16T02:36:30;19.80;71.80
27671;DHT22;15077;49.704;9.908;2022-10-16T02:38:58;19.80;71.70
27671;DHT22;15077;49.704;9.908;2022-10-16T02:41:26;19.80;71.70
27671;DHT22;15077;49.704;9.908;2022-10-16T02:43:52;19.80;71.70
27671;DHT22;15077;49.704;9.908;2022-10-16T02:46:20;19.80;71.70
27671;DHT22;15077;49.704;9.908;2022-10-16T02:48:46;19.80;71.70
27671;DHT22;15077;49.704;9.908;2022-10-16T02:51:12;19.80;71.70
27671;DHT22;15077;49.704;9.908;2022-10-16T02:53:38;19.80;71.70
27671;DHT22;15077;49.704;9.908;2022-10-16T02:56:03;19.80;71.70
27671;DHT22;15077;49.704;9.908;2022-10-16T02:58:29;19.80;71.70
27671;DHT22;15077;49.704;9.908;2022-10-16T03:00:55;19.80;71.80
27671;DHT22;15077;49.704;9.908;2022-10-16T03:03:21;19.80;71.80
27671;DHT22;15077;49.704;9.908;2022-10-16T03:05:46;19.80;72.40
27671;DHT22;15077;49.704;9.908;2022-10-16T03:08:12;19.70;71.80
27671;DHT22;15077;49.704;9.908;2022-10-16T03:10:38;19.80;72.00
27671;DHT22;15077;49.704;9.908;2022-10-16T03:13:04;19.70;72.00
27671;DHT22;15077;49.704;9.908;2022-10-16T03:15:30;19.70;72.00
27671;DHT22;15077;49.704;9.908;2022-10-16T03:17:58;19.70;72.00
27671;DHT22;15077;49.704;9.908;2022-10-16T03:20:25;19.70;72.10
27671;DHT22;15077;49.704;9.908;2022-10-16T03:22:51;19.70;72.10
27671;DHT22;15077;49.704;9.908;2022-10-16T03:25:17;19.60;72.10
27671;DHT22;15077;49.704;9.908;2022-10-16T03:27:43;19.60;72.10
27671;DHT22;15077;49.704;9.908;2022-10-16T03:30:09;19.70;72.20
27671;DHT22;15077;49.704;9.908;2022-10-16T03:32:35;19.60;72.10
27671;DHT22;15077;49.704;9.908;2022-10-16T03:35:00;19.60;72.10
27671;DHT22;15077;49.704;9.908;2022-10-16T03:37:26;19.60;72.10
27671;DHT22;15077;49.704;9.908;2022-10-16T03:39:52;19.60;72.10
27671;DHT22;15077;49.704;9.908;2022-10-16T03:42:18;19.60;72.10
27671;DHT22;15077;49.704;9.908;2022-10-16T03:44:43;19.60;72.10
27671;DHT22;15077;49.704;9.908;2022-10-16T03:47:10;19.60;72.20
27671;DHT22;15077;49.704;9.908;2022-10-16T03:49:35;19.60;72.20
27671;DHT22;15077;49.704;9.908;2022-10-16T03:52:01;19.50;72.10
27671;DHT22;15077;49.704;9.908;2022-10-16T03:54:27;19.50;72.20
27671;DHT22;15077;49.704;9.908;2022-10-16T03:56:52;19.50;72.30
27671;DHT22;15077;49.704;9.908;2022-10-16T03:59:18;19.50;72.30
27671;DHT22;15077;49.704;9.908;2022-10-16T04:01:44;19.50;72.30
27671;DHT22;15077;49.704;9.908;2022-10-16T04:04:09;19.50;72.40
27671;DHT22;15077;49.704;9.908;2022-10-16T04:06:35;19.50;72.40
27671;DHT22;15077;49.704;9.908;2022-10-16T04:09:01;19.50;72.40
27671;DHT22;15077;49.704;9.908;2022-10-16T04:11:27;19.50;72.50
27671;DHT22;15077;49.704;9.908;2022-10-16T04:13:53;19.50;72.40
27671;DHT22;15077;49.704;9.908;2022-10-16T04:16:18;19.50;72.40
27671;DHT22;15077;49.704;9.908;2022-10-16T04:18:44;19.50;72.40
27671;DHT22;15077;49.704;9.908;2022-10-16T04:21:10;19.50;72.30
27671;DHT22;15077;49.704;9.908;2022-10-16T04:23:35;19.50;72.30
27671;DHT22;15077;49.704;9.908;2022-10-16T04:26:01;19.50;72.30
27671;DHT22;15077;49.704;9.908;2022-10-16T04:28:27;19.50;72.30
27671;DHT22;15077;49.704;9.908;2022-10-16T04:30:53;19.50;72.40
27671;DHT22;15077;49.704;9.908;2022-10-16T04:33:19;19.50;72.30
27671;DHT22;15077;49.704;9.908;2022-10-16T04:35:45;19.50;72.30
27671;DHT22;15077;49.704;9.908;2022-10-16T04:38:10;19.50;72.30
27671;DHT22;15077;49.704;9.908;2022-10-16T04:40:36;19.50;72.30
27671;DHT22;15077;49.704;9.908;2022-10-16T04:43:02;19.50;72.30
27671;DHT22;15077;49.704;9.908;2022-10-16T04:45:29;19.50;72.30
27671;DHT22;15077;49.704;9.908;2022-10-16T04:47:58;19.50;72.30
27671;DHT22;15077;49.704;9.908;2022-10-16T04:50:24;19.50;72.40
27671;DHT22;15077;49.704;9.908;2022-10-16T04:52:50;19.50;72.30
27671;DHT22;15077;49.704;9.908;2022-10-16T04:55:15;19.50;72.40
27671;DHT22;15077;49.704;9.908;2022-10-16T04:57:41;19.50;72.30
27671;DHT22;15077;49.704;9.908;2022-10-16T05:00:07;19.60;72.40
27671;DHT22;15077;49.704;9.908;2022-10-16T05:02:34;19.60;72.40
27671;DHT22;15077;49.704;9.908;2022-10-16T05:04:59;19.60;72.40
27671;DHT22;15077;49.704;9.908;2022-10-16T05:07:25;19.60;72.40
27671;DHT22;15077;49.704;9.908;2022-10-16T05:09:50;19.60;72.40
27671;DHT22;15077;49.704;9.908;2022-10-16T05:12:16;19.60;72.30
27671;DHT22;15077;49.704;9.908;2022-10-16T05:14:42;19.60;72.30
27671;DHT22;15077;49.704;9.908;2022-10-16T05:17:07;19.60;72.30
27671;DHT22;15077;49.704;9.908;2022-10-16T05:19:33;19.60;72.30
27671;DHT22;15077;49.704;9.908;2022-10-16T05:21:59;19.60;72.30
27671;DHT22;15077;49.704;9.908;2022-10-16T05:24:24;19.60;72.30
27671;DHT22;15077;49.704;9.908;2022-10-16T05:26:50;19.60;72.30
27671;DHT22;15077;49.704;9.908;2022-10-16T05:29:16;19.60;72.30
27671;DHT22;15077;49.704;9.908;2022-10-16T05:31:42;19.60;72.30
27671;DHT22;15077;49.704;9.908;2022-10-16T05:34:08;19.60;72.40
27671;DHT22;15077;49.704;9.908;2022-10-16T05:36:33;19.60;72.40
27671;DHT22;15077;49.704;9.908;2022-10-16T05:38:59;19.60;72.30
27671;DHT22;15077;49.704;9.908;2022-10-16T05:41:25;19.60;72.30
27671;DHT22;15077;49.704;9.908;2022-10-16T05:43:52;19.60;72.30
27671;DHT22;15077;49.704;9.908;2022-10-16T05:46:18;19.60;72.30
27671;DHT22;15077;49.704;9.908;2022-10-16T05:48:44;19.60;72.30
27671;DHT22;15077;49.704;9.908;2022-10-16T05:51:11;19.60;72.20
27671;DHT22;15077;49.704;9.908;2022-10-16T05:53:38;19.60;72.20
27671;DHT22;15077;49.704;9.908;2022-10-16T05:56:06;19.60;72.20
27671;DHT22;15077;49.704;9.908;2022-10-16T05:58:35;19.60;72.30
27671;DHT22;15077;49.704;9.908;2022-10-16T06:01:05;19.60;72.30
27671;DHT22;15077;49.704;9.908;2022-10-16T06:03:35;19.60;72.20
27671;DHT22;15077;49.704;9.908;2022-10-16T06:06:34;19.60;72.20
27671;DHT22;15077;49.704;9.908;2022-10-16T06:08:53;19.60;72.20
27671;DHT22;15077;49.704;9.908;2022-10-16T06:11:24;19.60;72.20
27671;DHT22;15077;49.704;9.908;2022-10-16T06:13:52;19.60;72.20
27671;DHT22;15077;49.704;9.908;2022-10-16T06:16:22;19.60;72.20
27671;DHT22;15077;49.704;9.908;2022-10-16T06:18:52;19.60;72.10
27671;DHT22;15077;49.704;9.908;2022-10-16T06:21:20;19.60;72.10
27671;DHT22;15077;49.704;9.908;2022-10-16T06:23:47;19.60;72.10
27671;DHT22;15077;49.704;9.908;2022-10-16T06:26:15;19.50;72.20
27671;DHT22;15077;49.704;9.908;2022-10-16T06:28:42;19.50;72.10
27671;DHT22;15077;49.704;9.908;2022-10-16T06:31:08;19.50;72.20
27671;DHT22;15077;49.704;9.908;2022-10-16T06:33:35;19.50;72.30
27671;DHT22;15077;49.704;9.908;2022-10-16T06:36:02;19.50;72.40
27671;DHT22;15077;49.704;9.908;2022-10-16T06:38:33;19.50;72.40
27671;DHT22;15077;49.704;9.908;2022-10-16T06:40:59;19.50;72.40
27671;DHT22;15077;49.704;9.908;2022-10-16T06:43:25;19.50;72.40
27671;DHT22;15077;49.704;9.908;2022-10-16T06:45:52;19.50;72.40
27671;DHT22;15077;49.704;9.908;2022-10-16T06:48:18;19.50;72.40
27671;DHT22;15077;49.704;9.908;2022-10-16T06:50:54;19.50;72.40
27671;DHT22;15077;49.704;9.908;2022-10-16T06:53:20;19.50;72.30
27671;DHT22;15077;49.704;9.908;2022-10-16T06:55:46;19.50;72.30
27671;DHT22;15077;49.704;9.908;2022-10-16T06:58:12;19.50;72.40
27671;DHT22;15077;49.704;9.908;2022-10-16T07:00:37;19.60;72.40
27671;DHT22;15077;49.704;9.908;2022-10-16T07:03:03;19.60;72.40
27671;DHT22;15077;49.704;9.908;2022-10-16T07:05:29;19.60;72.40
27671;DHT22;15077;49.704;9.908;2022-10-16T07:07:54;19.60;72.40
27671;DHT22;15077;49.704;9.908;2022-10-16T07:10:20;19.60;72.50
27671;DHT22;15077;49.704;9.908;2022-10-16T07:12:49;19.60;72.40
27671;DHT22;15077;49.704;9.908;2022-10-16T07:15:15;19.60;72.40
27671;DHT22;15077;49.704;9.908;2022-10-16T07:17:41;19.60;72.30
27671;DHT22;15077;49.704;9.908;2022-10-16T07:20:06;19.60;72.40
27671;DHT22;15077;49.704;9.908;2022-10-16T07:22:32;19.60;72.30
27671;DHT22;15077;49.704;9.908;2022-10-16T07:24:58;19.70;72.40
27671;DHT22;15077;49.704;9.908;2022-10-16T07:27:24;19.70;72.30
27671;DHT22;15077;49.704;9.908;2022-10-16T07:29:50;19.70;72.30
27671;DHT22;15077;49.704;9.908;2022-10-16T07:32:15;19.70;72.30
27671;DHT22;15077;49.704;9.908;2022-10-16T07:34:41;19.70;72.30
27671;DHT22;15077;49.704;9.908;2022-10-16T07:37:07;19.70;72.30
27671;DHT22;15077;49.704;9.908;2022-10-16T07:39:33;19.80;72.40
27671;DHT22;15077;49.704;9.908;2022-10-16T07:41:58;19.80;72.40
27671;DHT22;15077;49.704;9.908;2022-10-16T07:44:24;19.80;72.40
27671;DHT22;15077;49.704;9.908;2022-10-16T07:46:50;19.80;72.40
27671;DHT22;15077;49.704;9.908;2022-10-16T07:49:16;19.80;72.40
27671;DHT22;15077;49.704;9.908;2022-10-16T07:51:41;19.80;72.40
27671;DHT22;15077;49.704;9.908;2022-10-16T07:54:08;19.90;72.50
27671;DHT22;15077;49.704;9.908;2022-10-16T07:56:34;19.90;72.50
27671;DHT22;15077;49.704;9.908;2022-10-16T07:59:00;19.90;72.50
27671;DHT22;15077;49.704;9.908;2022-10-16T08:01:26;19.90;72.50
27671;DHT22;15077;49.704;9.908;2022-10-16T08:03:52;19.90;72.50
27671;DHT22;15077;49.704;9.908;2022-10-16T08:06:18;19.90;72.50
27671;DHT22;15077;49.704;9.908;2022-10-16T08:08:45;20.00;72.60
27671;DHT22;15077;49.704;9.908;2022-10-16T08:11:11;20.10;72.60
27671;DHT22;15077;49.704;9.908;2022-10-16T08:13:37;20.10;72.70
27671;DHT22;15077;49.704;9.908;2022-10-16T08:16:03;20.10;72.70
27671;DHT22;15077;49.704;9.908;2022-10-16T08:18:34;20.10;72.70
27671;DHT22;15077;49.704;9.908;2022-10-16T08:21:02;20.20;72.80
27671;DHT22;15077;49.704;9.908;2022-10-16T08:23:28;20.20;72.80
27671;DHT22;15077;49.704;9.908;2022-10-16T08:25:54;20.30;72.80
27671;DHT22;15077;49.704;9.908;2022-10-16T08:28:21;20.30;72.80
27671;DHT22;15077;49.704;9.908;2022-10-16T08:30:47;20.30;72.80
27671;DHT22;15077;49.704;9.908;2022-10-16T08:33:13;20.40;72.80
27671;DHT22;15077;49.704;9.908;2022-10-16T08:35:38;20.50;72.80
27671;DHT22;15077;49.704;9.908;2022-10-16T08:38:04;20.50;72.70
27671;DHT22;15077;49.704;9.908;2022-10-16T08:40:32;20.50;72.60
27671;DHT22;15077;49.704;9.908;2022-10-16T08:50:45;20.60;72.30
27671;DHT22;15077;49.704;9.908;2022-10-16T08:53:18;20.60;72.30
27671;DHT22;15077;49.704;9.908;2022-10-16T08:55:55;20.60;72.30
27671;DHT22;15077;49.704;9.908;2022-10-16T08:58:22;20.60;72.40
27671;DHT22;15077;49.704;9.908;2022-10-16T09:00:53;20.70;72.50
27671;DHT22;15077;49.704;9.908;2022-10-16T09:06:44;20.70;72.40
27671;DHT22;15077;49.704;9.908;2022-10-16T09:12:11;20.80;72.40
27671;DHT22;15077;49.704;9.908;2022-10-16T09:22:44;21.00;72.30
27671;DHT22;15077;49.704;9.908;2022-10-16T09:25:12;21.00;72.40
27671;DHT22;15077;49.704;9.908;2022-10-16T09:27:48;21.00;72.10
27671;DHT22;15077;49.704;9.908;2022-10-16T09:30:18;21.00;72.10
27671;DHT22;15077;49.704;9.908;2022-10-16T09:32:45;21.10;72.10
27671;DHT22;15077;49.704;9.908;2022-10-16T09:35:15;21.10;72.20
27671;DHT22;15077;49.704;9.908;2022-10-16T09:37:44;21.10;72.20
27671;DHT22;15077;49.704;9.908;2022-10-16T09:40:13;21.10;72.10
27671;DHT22;15077;49.704;9.908;2022-10-16T09:42:49;21.10;72.00
27671;DHT22;15077;49.704;9.908;2022-10-16T09:45:21;21.10;71.90
27671;DHT22;15077;49.704;9.908;2022-10-16T09:47:48;21.20;72.00
27671;DHT22;15077;49.704;9.908;2022-10-16T09:50:25;21.20;72.10
27671;DHT22;15077;49.704;9.908;2022-10-16T09:53:07;21.20;72.10
27671;DHT22;15077;49.704;9.908;2022-10-16T09:55:36;21.30;72.10
27671;DHT22;15077;49.704;9.908;2022-10-16T09:58:13;21.30;72.00
27671;DHT22;15077;49.704;9.908;2022-10-16T10:00:39;21.30;72.00
27671;DHT22;15077;49.704;9.908;2022-10-16T10:03:10;21.30;71.80
27671;DHT22;15077;49.704;9.908;2022-10-16T10:05:37;21.30;71.80
27671;DHT22;15077;49.704;9.908;2022-10-16T10:08:05;21.40;71.90
27671;DHT22;15077;49.704;9.908;2022-10-16T10:10:32;21.40;71.90
27671;DHT22;15077;49.704;9.908;2022-10-16T10:12:59;21.40;71.90
27671;DHT22;15077;49.704;9.908;2022-10-16T10:15:27;21.50;71.90
27671;DHT22;15077;49.704;9.908;2022-10-16T10:17:58;21.50;72.00
27671;DHT22;15077;49.704;9.908;2022-10-16T10:22:56;21.60;71.50
27671;DHT22;15077;49.704;9.908;2022-10-16T10:28:06;21.70;72.00
27671;DHT22;15077;49.704;9.908;2022-10-16T10:31:33;21.70;72.00
27671;DHT22;15077;49.704;9.908;2022-10-16T10:33:45;21.80;71.90
27671;DHT22;15077;49.704;9.908;2022-10-16T10:36:42;21.80;71.90
27671;DHT22;15077;49.704;9.908;2022-10-16T10:39:20;21.80;71.90
27671;DHT22;15077;49.704;9.908;2022-10-16T10:42:09;21.80;71.80
27671;DHT22;15077;49.704;9.908;2022-10-16T10:44:59;21.70;71.80
27671;DHT22;15077;49.704;9.908;2022-10-16T10:50:26;21.70;73.00
27671;DHT22;15077;49.704;9.908;2022-10-16T11:03:39;22.20;74.70
27671;DHT22;15077;49.704;9.908;2022-10-16T11:06:12;22.40;75.00
27671;DHT22;15077;49.704;9.908;2022-10-16T11:08:53;22.60;74.60
27671;DHT22;15077;49.704;9.908;2022-10-16T11:16:53;23.20;75.30
27671;DHT22;15077;49.704;9.908;2022-10-16T11:22:03;23.60;75.00
27671;DHT22;15077;49.704;9.908;2022-10-16T11:27:41;24.10;74.00
27671;DHT22;15077;49.704;9.908;2022-10-16T11:30:23;24.30;72.70
27671;DHT22;15077;49.704;9.908;2022-10-16T11:33:10;24.50;72.90
27671;DHT22;15077;49.704;9.908;2022-10-16T11:35:48;24.70;72.40
27671;DHT22;15077;49.704;9.908;2022-10-16T11:41:01;25.00;69.80
27671;DHT22;15077;49.704;9.908;2022-10-16T11:43:38;25.10;70.30
27671;DHT22;15077;49.704;9.908;2022-10-16T11:46:09;25.20;70.50
27671;DHT22;15077;49.704;9.908;2022-10-16T11:51:40;25.40;69.20
27671;DHT22;15077;49.704;9.908;2022-10-16T11:56:37;25.50;69.40
27671;DHT22;15077;49.704;9.908;2022-10-16T11:59:06;25.60;69.40
27671;DHT22;15077;49.704;9.908;2022-10-16T12:02:25;25.70;66.40
27671;DHT22;15077;49.704;9.908;2022-10-16T12:04:39;25.70;68.20
27671;DHT22;15077;49.704;9.908;2022-10-16T12:09:52;25.80;66.80
27671;DHT22;15077;49.704;9.908;2022-10-16T12:15:00;25.80;66.10
27671;DHT22;15077;49.704;9.908;2022-10-16T12:17:38;25.80;65.60
27671;DHT22;15077;49.704;9.908;2022-10-16T12:22:55;25.80;64.90
27671;DHT22;15077;49.704;9.908;2022-10-16T12:30:57;25.70;63.80
27671;DHT22;15077;49.704;9.908;2022-10-16T12:33:26;25.70;65.50
27671;DHT22;15077;49.704;9.908;2022-10-16T12:35:54;25.70;66.10
27671;DHT22;15077;49.704;9.908;2022-10-16T12:38:24;25.70;65.40
27671;DHT22;15077;49.704;9.908;2022-10-16T12:41:00;25.80;65.40
27671;DHT22;15077;49.704;9.908;2022-10-16T12:43:38;25.70;65.30
27671;DHT22;15077;49.704;9.908;2022-10-16T12:48:40;25.80;65.50
27671;DHT22;15077;49.704;9.908;2022-10-16T12:51:19;25.80;65.60
27671;DHT22;15077;49.704;9.908;2022-10-16T13:09:58;25.80;63.10
27671;DHT22;15077;49.704;9.908;2022-10-16T13:16:27;25.70;64.00
27671;DHT22;15077;49.704;9.908;2022-10-16T13:18:38;25.70;64.20
27671;DHT22;15077;49.704;9.908;2022-10-16T13:24:31;25.70;64.10
27671;DHT22;15077;49.704;9.908;2022-10-16T13:27:07;25.70;64.30
27671;DHT22;15077;49.704;9.908;2022-10-16T13:29:52;25.70;63.70
27671;DHT22;15077;49.704;9.908;2022-10-16T13:32:24;25.70;63.20
27671;DHT22;15077;49.704;9.908;2022-10-16T13:34:50;25.70;63.40
27671;DHT22;15077;49.704;9.908;2022-10-16T13:37:20;25.70;62.60
27671;DHT22;15077;49.704;9.908;2022-10-16T13:39:47;25.80;63.60
27671;DHT22;15077;49.704;9.908;2022-10-16T13:42:26;25.70;62.90
27671;DHT22;15077;49.704;9.908;2022-10-16T13:44:54;25.80;63.60
27671;DHT22;15077;49.704;9.908;2022-10-16T13:47:24;25.80;63.50
27671;DHT22;15077;49.704;9.908;2022-10-16T13:49:59;25.70;62.50
27671;DHT22;15077;49.704;9.908;2022-10-16T13:52:29;25.70;62.50
27671;DHT22;15077;49.704;9.908;2022-10-16T13:54:55;25.70;63.00
27671;DHT22;15077;49.704;9.908;2022-10-16T13:57:22;25.60;62.70
27671;DHT22;15077;49.704;9.908;2022-10-16T13:59:48;25.60;63.00
27671;DHT22;15077;49.704;9.908;2022-10-16T14:04:47;25.40;62.50
27671;DHT22;15077;49.704;9.908;2022-10-16T14:07:18;25.40;62.10
27671;DHT22;15077;49.704;9.908;2022-10-16T14:09:49;25.40;63.10
27671;DHT22;15077;49.704;9.908;2022-10-16T14:12:16;25.30;63.10
27671;DHT22;15077;49.704;9.908;2022-10-16T14:14:44;25.30;63.10
27671;DHT22;15077;49.704;9.908;2022-10-16T14:17:16;25.30;63.30
27671;DHT22;15077;49.704;9.908;2022-10-16T14:19:48;25.20;63.20
27671;DHT22;15077;49.704;9.908;2022-10-16T14:22:22;25.20;63.50
27671;DHT22;15077;49.704;9.908;2022-10-16T14:24:54;25.20;63.60
27671;DHT22;15077;49.704;9.908;2022-10-16T14:27:31;25.20;63.90
27671;DHT22;15077;49.704;9.908;2022-10-16T14:32:33;25.20;63.70
27671;DHT22;15077;49.704;9.908;2022-10-16T14:34:59;25.20;63.90
27671;DHT22;15077;49.704;9.908;2022-10-16T14:37:26;25.20;63.60
27671;DHT22;15077;49.704;9.908;2022-10-16T14:39:54;25.20;63.50
27671;DHT22;15077;49.704;9.908;2022-10-16T14:42:21;25.10;63.80
27671;DHT22;15077;49.704;9.908;2022-10-16T14:44:51;25.10;63.90
27671;DHT22;15077;49.704;9.908;2022-10-16T14:47:20;25.10;64.10
27671;DHT22;15077;49.704;9.908;2022-10-16T14:49:50;25.10;63.80
27671;DHT22;15077;49.704;9.908;2022-10-16T14:52:17;25.10;63.90
27671;DHT22;15077;49.704;9.908;2022-10-16T14:54:42;25.10;64.10
27671;DHT22;15077;49.704;9.908;2022-10-16T14:57:17;25.10;64.00
27671;DHT22;15077;49.704;9.908;2022-10-16T14:59:45;25.00;63.10
27671;DHT22;15077;49.704;9.908;2022-10-16T15:04:47;25.00;63.70
27671;DHT22;15077;49.704;9.908;2022-10-16T15:07:14;25.00;64.00
27671;DHT22;15077;49.704;9.908;2022-10-16T15:09:40;25.00;63.50
27671;DHT22;15077;49.704;9.908;2022-10-16T15:12:05;24.90;64.00
27671;DHT22;15077;49.704;9.908;2022-10-16T15:14:31;24.90;64.10
27671;DHT22;15077;49.704;9.908;2022-10-16T15:16:57;24.90;64.10
27671;DHT22;15077;49.704;9.908;2022-10-16T15:19:23;24.90;64.10
27671;DHT22;15077;49.704;9.908;2022-10-16T15:21:49;24.80;63.90
27671;DHT22;15077;49.704;9.908;2022-10-16T15:24:15;24.80;63.90
27671;DHT22;15077;49.704;9.908;2022-10-16T15:26:41;24.80;63.70
27671;DHT22;15077;49.704;9.908;2022-10-16T15:29:07;24.80;63.80
27671;DHT22;15077;49.704;9.908;2022-10-16T15:31:33;24.80;63.90
27671;DHT22;15077;49.704;9.908;2022-10-16T15:33:59;24.80;63.80
27671;DHT22;15077;49.704;9.908;2022-10-16T15:36:30;24.70;63.40
27671;DHT22;15077;49.704;9.908;2022-10-16T15:39:02;24.70;63.50
27671;DHT22;15077;49.704;9.908;2022-10-16T15:41:29;24.70;63.20
27671;DHT22;15077;49.704;9.908;2022-10-16T15:43:54;24.60;63.60
27671;DHT22;15077;49.704;9.908;2022-10-16T15:46:21;24.60;63.80
27671;DHT22;15077;49.704;9.908;2022-10-16T15:48:49;24.50;63.90
27671;DHT22;15077;49.704;9.908;2022-10-16T15:51:16;24.50;64.00
27671;DHT22;15077;49.704;9.908;2022-10-16T15:53:43;24.50;64.10
27671;DHT22;15077;49.704;9.908;2022-10-16T15:56:11;24.50;64.10
27671;DHT22;15077;49.704;9.908;2022-10-16T15:58:38;24.50;64.10
27671;DHT22;15077;49.704;9.908;2022-10-16T16:01:05;24.50;64.10
27671;DHT22;15077;49.704;9.908;2022-10-16T16:03:31;24.50;64.10
27671;DHT22;15077;49.704;9.908;2022-10-16T16:05:58;24.50;64.10
27671;DHT22;15077;49.704;9.908;2022-10-16T16:08:32;24.50;64.10
27671;DHT22;15077;49.704;9.908;2022-10-16T16:11:05;24.50;64.20
27671;DHT22;15077;49.704;9.908;2022-10-16T16:13:35;24.40;64.20
27671;DHT22;15077;49.704;9.908;2022-10-16T16:16:09;24.40;64.30
27671;DHT22;15077;49.704;9.908;2022-10-16T16:18:37;24.40;64.40
27671;DHT22;15077;49.704;9.908;2022-10-16T16:21:03;24.40;64.40
27671;DHT22;15077;49.704;9.908;2022-10-16T16:23:29;24.40;64.40
27671;DHT22;15077;49.704;9.908;2022-10-16T16:26:06;24.40;64.50
27671;DHT22;15077;49.704;9.908;2022-10-16T16:28:31;24.40;64.50
27671;DHT22;15077;49.704;9.908;2022-10-16T16:30:57;24.40;64.50
27671;DHT22;15077;49.704;9.908;2022-10-16T16:33:23;24.40;64.50
27671;DHT22;15077;49.704;9.908;2022-10-16T16:35:49;24.30;64.50
27671;DHT22;15077;49.704;9.908;2022-10-16T16:38:15;24.30;64.60
27671;DHT22;15077;49.704;9.908;2022-10-16T16:40:40;24.30;64.60
27671;DHT22;15077;49.704;9.908;2022-10-16T16:43:06;24.30;64.60
27671;DHT22;15077;49.704;9.908;2022-10-16T16:45:34;24.30;64.60
27671;DHT22;15077;49.704;9.908;2022-10-16T16:48:00;24.20;64.40
27671;DHT22;15077;49.704;9.908;2022-10-16T16:50:26;24.20;64.50
27671;DHT22;15077;49.704;9.908;2022-10-16T16:52:52;24.20;64.40
27671;DHT22;15077;49.704;9.908;2022-10-16T16:55:17;24.10;64.30
27671;DHT22;15077;49.704;9.908;2022-10-16T16:57:43;24.10;64.40
27671;DHT22;15077;49.704;9.908;2022-10-16T17:00:09;24.10;64.40
27671;DHT22;15077;49.704;9.908;2022-10-16T17:02:35;24.00;64.40
27671;DHT22;15077;49.704;9.908;2022-10-16T17:05:00;24.00;64.50
27671;DHT22;15077;49.704;9.908;2022-10-16T17:07:26;24.00;64.50
27671;DHT22;15077;49.704;9.908;2022-10-16T17:09:57;23.90;64.40
27671;DHT22;15077;49.704;9.908;2022-10-16T17:12:23;23.90;64.50
27671;DHT22;15077;49.704;9.908;2022-10-16T17:14:50;23.90;64.50
27671;DHT22;15077;49.704;9.908;2022-10-16T17:17:16;23.80;64.50
27671;DHT22;15077;49.704;9.908;2022-10-16T17:19:41;23.80;64.40
27671;DHT22;15077;49.704;9.908;2022-10-16T17:22:07;23.80;64.40
27671;DHT22;15077;49.704;9.908;2022-10-16T17:24:33;23.70;64.40
27671;DHT22;15077;49.704;9.908;2022-10-16T17:26:58;23.60;64.30
27671;DHT22;15077;49.704;9.908;2022-10-16T17:29:24;23.60;64.30
27671;DHT22;15077;49.704;9.908;2022-10-16T17:31:50;23.60;64.30
27671;DHT22;15077;49.704;9.908;2022-10-16T17:34:16;23.50;64.20
27671;DHT22;15077;49.704;9.908;2022-10-16T17:36:42;23.50;64.30
27671;DHT22;15077;49.704;9.908;2022-10-16T17:39:12;23.40;64.20
27671;DHT22;15077;49.704;9.908;2022-10-16T17:41:42;23.40;64.20
27671;DHT22;15077;49.704;9.908;2022-10-16T17:44:09;23.30;64.20
27671;DHT22;15077;49.704;9.908;2022-10-16T17:46:34;23.30;64.20